< < Back
Terminal Aerodrome Forecast


Current Version              Previous Versions:   1  2  3  4  5  6  7  8  9  

Terminal Aerodrome Forecast

000
FTUS42 KFFC 240500
TAFFTY
TAF
KFTY 240525Z 2406/2506 00000KT P6SM BKN250
     FM241600 32003KT P6SM SCT150=



Latest METAR

882
SAUS70 KWBC 241800 RRP
MTRFTY
METAR KFTY 241753Z 29005KT 10SM CLR 21/07 A3004 RMK AO2 SLP168 T02060067
10206 20083 58013


USA.gov is the U.S. government's official web portal to all federal, state and local government web resources and services.